Time,TemperatureF,DewpointF,PressureIn,WindDirection,WindDirectionDegrees,WindSpeedMPH,WindSpeedGustMPH,Humidity,HourlyPrecipIn,Conditions,Clouds,dailyrainin,SoftwareType,DateUTC
2013-02-25 00:04:00,25.7,20.4,30.14,NNW,337,0.0,0.0,80,0.00,CLR,SKC,0.00,WeatherDisplay:10.37,2013-02-25 07:04:00,
2013-02-25 00:09:00,25.6,20.3,30.14,NNW,337,0.0,0.0,80,0.00,CLR,SKC,0.00,WeatherDisplay:10.37,2013-02-25 07:09:00,
2013-02-25 00:14:00,25.6,20.0,30.14,NNW,337,0.0,0.0,79,0.00,CLR,SKC,0.00,WeatherDisplay:10.37,2013-02-25 07:14:00,
2013-02-25 00:19:00,25.5,20.2,30.14,NNW,337,0.0,0.0,80,0.00,CLR,SKC,0.00,WeatherDisplay:10.37,2013-02-25 07:19:00,
2013-02-25 00:24:00,25.5,19.9,30.14,NNW,337,0.0,0.0,79,0.00,CLR,SKC,0.00,WeatherDisplay:10.37,2013-02-25 07:24:00,
2013-02-25 00:29:00,25.4,20.1,30.14,NNW,337,0.0,0.0,80,0.00,CLR,SKC,0.00,WeatherDisplay:10.37,2013-02-25 07:29:00,
2013-02-25 00:34:00,25.3,20.3,30.14,NNW,337,0.0,0.0,81,0.00,CLR,SKC,0.00,WeatherDisplay:10.37,2013-02-25 07:34:00,
2013-02-25 00:39:00,25.3,20.3,30.14,NNW,337,0.0,0.0,81,0.00,CLR,SKC,0.00,WeatherDisplay:10.37,2013-02-25 07:39:00,
2013-02-25 00:44:00,25.2,19.9,30.14,NNW,337,0.0,0.0,80,0.00,CLR,SKC,0.00,WeatherDisplay:10.37,2013-02-25 07:44:00,
2013-02-25 00:49:00,25.2,19.6,30.14,NNW,337,0.0,0.0,79,0.00,CLR,SKC,0.00,WeatherDisplay:10.37,2013-02-25 07:49:00,
2013-02-25 00:54:00,25.1,20.1,30.14,NNW,337,0.0,0.0,81,0.00,CLR,SKC,0.00,WeatherDisplay:10.37,2013-02-25 07:54:00,
2013-02-25 01:00:00,25.0,19.7,30.14,NNW,337,0.0,0.0,80,0.00,CLR,SKC,0.00,WeatherDisplay:10.37,2013-02-25 08:00:00,
2013-02-25 01:05:00,24.9,19.6,30.14,NNW,337,0.0,0.0,80,0.00,CLR,SKC,0.00,WeatherDisplay:10.37,2013-02-25 08:05:00,
2013-02-25 01:11:00,25.0,19.7,30.13,NNW,337,0.0,0.0,80,0.00,CLR,SKC,0.00,WeatherDisplay:10.37,2013-02-25 08:11:00,
2013-02-25 01:16:00,25.1,19.8,30.13,NNW,337,0.0,0.0,80,0.00,CLR,SKC,0.00,WeatherDisplay:10.37,2013-02-25 08:16:00,
2013-02-25 01:21:00,25.2,19.6,30.13,NNW,337,0.0,0.0,79,0.00,CLR,SKC,0.00,WeatherDisplay:10.37,2013-02-25 08:21:00,
2013-02-25 01:26:00,25.4,19.5,30.13,NNW,337,0.0,0.0,78,0.00,CLR,SKC,0.00,WeatherDisplay:10.37,2013-02-25 08:26:00,
2013-02-25 01:31:00,25.6,20.0,30.13,NNW,337,0.0,0.0,79,0.00,CLR,SKC,0.00,WeatherDisplay:10.37,2013-02-25 08:31:00,
2013-02-25 01:36:00,25.7,20.4,30.13,NNW,337,0.0,0.0,80,0.00,CLR,SKC,0.00,WeatherDisplay:10.37,2013-02-25 08:36:00,
2013-02-25 01:41:00,25.8,20.8,30.13,NNW,337,0.0,0.0,81,0.00,CLR,SKC,0.00,WeatherDisplay:10.37,2013-02-25 08:41:00,
2013-02-25 01:46:00,26.0,20.7,30.13,NNW,337,0.0,0.0,80,0.00,CLR,SKC,0.00,WeatherDisplay:10.37,2013-02-25 08:46:00,
2013-02-25 01:51:00,26.1,20.8,30.13,NNW,337,0.0,0.0,80,0.00,CLR,SKC,0.00,WeatherDisplay:10.37,2013-02-25 08:51:00,
2013-02-25 01:56:00,26.1,21.1,30.13,NNW,337,0.0,0.0,81,0.00,CLR,SKC,0.00,WeatherDisplay:10.37,2013-02-25 08:56:00,
2013-02-25 02:02:00,26.0,21.0,30.12,NNW,337,0.0,0.0,81,0.00,CLR,SKC,0.00,WeatherDisplay:10.37,2013-02-25 09:02:00,
2013-02-25 02:07:00,26.0,21.0,30.12,NNW,337,0.0,0.0,81,0.00,CLR,SKC,0.00,WeatherDisplay:10.37,2013-02-25 09:07:00,
2013-02-25 02:12:00,25.9,21.2,30.13,NNW,337,0.0,0.0,82,0.00,CLR,SKC,0.00,WeatherDisplay:10.37,2013-02-25 09:12:00,
2013-02-25 02:17:00,25.8,20.8,30.12,NNW,337,0.0,0.0,81,0.00,CLR,SKC,0.00,WeatherDisplay:10.37,2013-02-25 09:17:00,
2013-02-25 02:23:00,25.7,21.0,30.12,NNW,337,0.0,0.0,82,0.00,CLR,SKC,0.00,WeatherDisplay:10.37,2013-02-25 09:23:00,
2013-02-25 02:28:00,25.6,20.0,30.12,NNW,337,0.0,0.0,79,0.00,CLR,SKC,0.00,WeatherDisplay:10.37,2013-02-25 09:28:00,
2013-02-25 02:33:00,25.6,20.3,30.12,NNW,337,1.1,1.1,80,0.00,CLR,SKC,0.00,WeatherDisplay:10.37,2013-02-25 09:33:00,
2013-02-25 02:38:00,25.7,20.4,30.11,NNW,337,0.0,0.0,80,0.00,CLR,SKC,0.00,WeatherDisplay:10.37,2013-02-25 09:38:00,
2013-02-25 02:43:00,25.7,20.7,30.11,NNW,337,0.0,0.0,81,0.00,CLR,SKC,0.00,WeatherDisplay:10.37,2013-02-25 09:43:00,
2013-02-25 02:48:00,25.8,20.5,30.11,NNW,337,0.0,0.0,80,0.00,CLR,SKC,0.00,WeatherDisplay:10.37,2013-02-25 09:48:00,
2013-02-25 02:54:00,25.8,20.8,30.10,NNW,337,0.0,0.0,81,0.00,CLR,SKC,0.00,WeatherDisplay:10.37,2013-02-25 09:54:00,
2013-02-25 02:59:00,25.8,20.8,30.10,NNW,337,0.0,0.0,81,0.00,CLR,SKC,0.00,WeatherDisplay:10.37,2013-02-25 09:59:00,
2013-02-25 03:04:00,25.7,20.7,30.10,NNW,337,1.1,1.1,81,0.00,CLR,SKC,0.00,WeatherDisplay:10.37,2013-02-25 10:04:00,
2013-02-25 03:09:00,25.6,20.9,30.10,NNW,337,1.1,1.1,82,0.00,CLR,SKC,0.00,WeatherDisplay:10.37,2013-02-25 10:09:00,
2013-02-25 03:15:00,25.5,20.8,30.09,NNW,337,0.0,0.0,82,0.00,CLR,SKC,0.00,WeatherDisplay:10.37,2013-02-25 10:15:00,
2013-02-25 03:20:00,25.4,20.4,30.09,NNW,337,0.0,0.0,81,0.00,CLR,SKC,0.00,WeatherDisplay:10.37,2013-02-25 10:20:00,
2013-02-25 03:25:00,25.4,20.7,30.09,NNW,337,0.0,0.0,82,0.00,CLR,SKC,0.00,WeatherDisplay:10.37,2013-02-25 10:25:00,
2013-02-25 03:30:00,25.2,20.2,30.09,NNW,337,0.0,0.0,81,0.00,CLR,SKC,0.00,WeatherDisplay:10.37,2013-02-25 10:30:00,
2013-02-25 03:35:00,25.1,19.5,30.08,NNW,337,0.0,0.0,79,0.00,CLR,SKC,0.00,WeatherDisplay:10.37,2013-02-25 10:35:00,
2013-02-25 03:39:00,25.0,19.4,30.08,NNW,337,0.0,0.0,79,0.00,CLR,SKC,0.00,WeatherDisplay:10.37,2013-02-25 10:39:00,
2013-02-25 03:44:00,24.8,19.2,30.08,WNW,296,0.0,0.0,79,0.00,CLR,SKC,0.00,WeatherDisplay:10.37,2013-02-25 10:44:00,
2013-02-25 03:50:00,24.7,19.4,30.08,WNW,296,0.0,0.0,80,0.00,CLR,SKC,0.00,WeatherDisplay:10.37,2013-02-25 10:50:00,
2013-02-25 03:55:00,24.6,19.3,30.08,WNW,296,0.0,0.0,80,0.00,CLR,SKC,0.00,WeatherDisplay:10.37,2013-02-25 10:55:00,
2013-02-25 04:00:00,24.5,19.5,30.07,WNW,296,0.0,0.0,81,0.00,CLR,SKC,0.00,WeatherDisplay:10.37,2013-02-25 11:00:00,
2013-02-25 04:05:00,24.4,19.4,30.07,WNW,296,0.0,0.0,81,0.00,CLR,SKC,0.00,WeatherDisplay:10.37,2013-02-25 11:05:00,
2013-02-25 04:10:00,24.2,19.2,30.07,West,279,3.5,3.5,81,0.00,CLR,SKC,0.00,WeatherDisplay:10.37,2013-02-25 11:10:00,
2013-02-25 04:16:00,24.2,19.5,30.06,West,279,0.0,0.0,82,0.00,CLR,SKC,0.00,WeatherDisplay:10.37,2013-02-25 11:16:00,
2013-02-25 04:21:00,24.1,19.7,30.06,WNW,284,0.0,0.0,83,0.00,CLR,SKC,0.00,WeatherDisplay:10.37,2013-02-25 11:21:00,
2013-02-25 04:26:00,24.1,19.7,30.06,WNW,284,0.0,0.0,83,0.00,CLR,SKC,0.00,WeatherDisplay:10.37,2013-02-25 11:26:00,
2013-02-25 04:31:00,24.0,19.9,30.06,WNW,284,2.3,2.3,84,0.00,CLR,SKC,0.00,WeatherDisplay:10.37,2013-02-25 11:31:00,
2013-02-25 04:37:00,23.9,19.5,30.05,WNW,284,0.0,0.0,83,0.00,CLR,SKC,0.00,WeatherDisplay:10.37,2013-02-25 11:37:00,
2013-02-25 04:42:00,23.9,19.8,30.06,WNW,284,0.0,0.0,84,0.00,CLR,SKC,0.00,WeatherDisplay:10.37,2013-02-25 11:42:00,
2013-02-25 04:48:00,23.9,19.8,30.05,WNW,284,0.0,1.0,84,0.00,CLR,SKC,0.00,WeatherDisplay:10.37,2013-02-25 11:48:00,
2013-02-25 04:53:00,23.9,19.8,30.05,WNW,284,0.0,0.0,84,0.00,CLR,SKC,0.00,WeatherDisplay:10.37,2013-02-25 11:53:00,
2013-02-25 04:58:00,24.1,20.0,30.05,WNW,284,0.0,0.0,84,0.00,CLR,SKC,0.00,WeatherDisplay:10.37,2013-02-25 11:58:00,
2013-02-25 05:03:00,24.2,20.1,30.04,WNW,284,0.0,0.0,84,0.00,CLR,SKC,0.00,WeatherDisplay:10.37,2013-02-25 12:03:00,
2013-02-25 05:08:00,24.4,20.5,30.04,WNW,284,0.0,0.0,85,0.00,CLR,SKC,0.00,WeatherDisplay:10.37,2013-02-25 12:08:00,
2013-02-25 05:13:00,24.4,20.3,30.04,WNW,284,0.0,0.0,84,0.00,CLR,SKC,0.00,WeatherDisplay:10.37,2013-02-25 12:13:00,
2013-02-25 05:19:00,24.4,20.3,30.04,WNW,284,0.0,0.0,84,0.00,CLR,SKC,0.00,WeatherDisplay:10.37,2013-02-25 12:19:00,
2013-02-25 05:24:00,24.4,20.3,30.03,WNW,284,1.1,1.1,84,0.00,CLR,SKC,0.00,WeatherDisplay:10.37,2013-02-25 12:24:00,
2013-02-25 05:29:00,24.4,20.0,30.03,WNW,284,0.0,0.0,83,0.00,CLR,SKC,0.00,WeatherDisplay:10.37,2013-02-25 12:29:00,
2013-02-25 05:34:00,24.4,20.3,30.03,WNW,284,0.0,0.0,84,0.00,CLR,SKC,0.00,WeatherDisplay:10.37,2013-02-25 12:34:00,
2013-02-25 05:39:00,24.4,20.3,30.03,WNW,284,0.0,0.0,84,0.00,CLR,SKC,0.00,WeatherDisplay:10.37,2013-02-25 12:39:00,
2013-02-25 05:45:00,24.5,20.6,30.03,WNW,284,0.0,0.0,85,0.00,CLR,SKC,0.00,WeatherDisplay:10.37,2013-02-25 12:45:00,
2013-02-25 05:54:00,24.5,20.6,30.02,WNW,284,0.0,1.0,85,0.00,CLR,SKC,0.00,WeatherDisplay:10.37,2013-02-25 12:54:00,
2013-02-25 05:59:00,24.4,20.3,30.02,WNW,284,0.0,0.0,84,0.00,CLR,SKC,0.00,WeatherDisplay:10.37,2013-02-25 12:59:00,
2013-02-25 06:04:00,24.4,20.3,30.01,WNW,284,0.0,0.0,84,0.00,CLR,SKC,0.00,WeatherDisplay:10.37,2013-02-25 13:04:00,
2013-02-25 06:09:00,24.4,20.3,30.01,West,274,2.3,2.3,84,0.00,CLR,SKC,0.00,WeatherDisplay:10.37,2013-02-25 13:09:00,
2013-02-25 06:15:00,24.3,19.6,30.01,WSW,239,0.0,0.0,82,0.00,CLR,SKC,0.00,WeatherDisplay:10.37,2013-02-25 13:15:00,
2013-02-25 06:20:00,24.4,19.7,30.01,WSW,239,0.0,0.0,82,0.00,CLR,SKC,0.00,WeatherDisplay:10.37,2013-02-25 13:20:00,
2013-02-25 06:25:00,24.4,19.7,30.00,WSW,239,0.0,0.0,82,0.00,CLR,SKC,0.00,WeatherDisplay:10.37,2013-02-25 13:25:00,
2013-02-25 06:30:00,24.5,20.1,30.00,WSW,239,1.1,1.1,83,0.00,CLR,SKC,0.00,WeatherDisplay:10.37,2013-02-25 13:30:00,
2013-02-25 06:37:00,24.4,20.0,29.99,SSE,150,2.3,2.3,83,0.00,CLR,SKC,0.00,WeatherDisplay:10.37,2013-02-25 13:37:00,
2013-02-25 06:42:00,24.5,20.1,30.00,West,264,1.1,1.1,83,0.00,CLR,SKC,0.00,WeatherDisplay:10.37,2013-02-25 13:42:00,
2013-02-25 06:47:00,24.6,20.5,30.00,West,260,2.0,2.0,84,0.00,CLR,SKC,0.00,WeatherDisplay:10.37,2013-02-25 13:47:00,
2013-02-25 06:52:00,24.6,20.5,29.99,West,260,1.1,1.1,84,0.00,CLR,SKC,0.00,WeatherDisplay:10.37,2013-02-25 13:52:00,
2013-02-25 06:57:00,24.7,20.6,29.99,WSW,255,1.1,0.0,84,0.00,CLR,SKC,0.00,WeatherDisplay:10.37,2013-02-25 13:57:00,
2013-02-25 07:03:00,24.6,19.9,29.99,WSW,255,0.0,0.0,82,0.00,CLR,SKC,0.00,WeatherDisplay:10.37,2013-02-25 14:03:00,
2013-02-25 07:08:00,24.7,20.0,29.98,SSW,211,2.0,2.0,82,0.00,CLR,SKC,0.00,WeatherDisplay:10.37,2013-02-25 14:08:00,
2013-02-25 07:13:00,24.7,19.7,29.98,SW,215,0.0,5.0,81,0.00,CLR,SKC,0.00,WeatherDisplay:10.37,2013-02-25 14:13:00,
2013-02-25 07:18:00,25.0,19.7,29.98,South,183,0.0,3.0,80,0.00,CLR,SKC,0.00,WeatherDisplay:10.37,2013-02-25 14:18:00,
2013-02-25 07:24:00,25.3,19.4,29.98,South,174,1.1,0.0,78,0.00,CLR,SKC,0.00,WeatherDisplay:10.37,2013-02-25 14:24:00,
2013-02-25 07:29:00,25.3,20.0,29.98,South,174,0.0,0.1,80,0.00,CLR,SKC,0.00,WeatherDisplay:10.37,2013-02-25 14:29:00,
2013-02-25 07:34:00,25.4,20.1,29.98,South,174,1.1,0.0,80,0.00,CLR,SKC,0.00,WeatherDisplay:10.37,2013-02-25 14:34:00,
2013-02-25 07:39:00,25.4,20.1,29.97,South,174,2.3,2.3,80,0.00,CLR,SKC,0.00,WeatherDisplay:10.37,2013-02-25 14:39:00,
2013-02-25 07:44:00,25.4,20.1,29.97,South,174,1.0,0.0,80,0.00,CLR,SKC,0.00,WeatherDisplay:10.37,2013-02-25 14:44:00,
2013-02-25 07:49:00,25.3,20.3,29.98,SSW,198,2.3,2.3,81,0.00,CLR,SKC,0.00,WeatherDisplay:10.37,2013-02-25 14:49:00,
2013-02-25 07:55:00,25.4,20.1,29.97,SSW,198,0.0,0.0,80,0.00,CLR,SKC,0.00,WeatherDisplay:10.37,2013-02-25 14:55:00,
2013-02-25 08:01:00,25.5,20.2,29.97,SSW,198,1.1,1.1,80,0.00,CLR,SKC,0.00,WeatherDisplay:10.37,2013-02-25 15:01:00,
2013-02-25 08:06:00,25.6,20.3,29.97,SSW,205,0.0,0.0,80,0.00,CLR,SKC,0.00,WeatherDisplay:10.37,2013-02-25 15:06:00,
2013-02-25 08:12:00,25.6,20.3,29.96,SSW,205,0.0,0.0,80,0.00,CLR,SKC,0.00,WeatherDisplay:10.37,2013-02-25 15:12:00,
2013-02-25 08:17:00,25.7,20.7,29.96,SSW,205,0.0,0.0,81,0.00,CLR,SKC,0.00,WeatherDisplay:10.37,2013-02-25 15:17:00,
2013-02-25 08:21:00,25.8,20.8,29.96,SSW,205,0.0,0.0,81,0.00,CLR,SKC,0.00,WeatherDisplay:10.37,2013-02-25 15:21:00,
2013-02-25 08:26:00,25.9,21.2,29.96,SSW,205,0.0,0.0,82,0.00,CLR,SKC,0.00,WeatherDisplay:10.37,2013-02-25 15:26:00,
2013-02-25 08:31:00,25.9,21.2,29.96,SSW,205,0.0,0.0,82,0.00,CLR,SKC,0.00,WeatherDisplay:10.37,2013-02-25 15:31:00,
2013-02-25 08:36:00,26.1,21.4,29.96,SSW,205,1.1,1.1,82,0.00,CLR,SKC,0.00,WeatherDisplay:10.37,2013-02-25 15:36:00,
2013-02-25 08:42:00,26.2,21.2,29.95,SSW,205,0.0,0.0,81,0.00,CLR,SKC,0.00,WeatherDisplay:10.37,2013-02-25 15:42:00,
2013-02-25 08:47:00,26.3,21.6,29.95,SSW,205,0.0,0.0,82,0.00,CLR,SKC,0.00,WeatherDisplay:10.37,2013-02-25 15:47:00,
2013-02-25 08:52:00,26.4,21.4,29.95,SSW,205,0.0,0.0,81,0.00,CLR,SKC,0.00,WeatherDisplay:10.37,2013-02-25 15:52:00,
2013-02-25 08:57:00,26.7,21.1,29.95,SSW,205,0.0,0.0,79,0.00,CLR,SKC,0.00,WeatherDisplay:10.37,2013-02-25 15:57:00,
2013-02-25 09:02:00,26.9,21.0,29.95,SSW,205,0.0,0.0,78,0.00,CLR,SKC,0.00,WeatherDisplay:10.37,2013-02-25 16:02:00,
2013-02-25 09:07:00,27.1,20.5,29.95,SSW,205,0.0,0.0,76,0.00,CLR,SKC,0.00,WeatherDisplay:10.37,2013-02-25 16:07:00,
2013-02-25 09:12:00,27.4,20.8,29.94,SSW,205,0.0,0.0,76,0.00,CLR,SKC,0.00,WeatherDisplay:10.37,2013-02-25 16:12:00,
2013-02-25 09:17:00,27.6,21.0,29.94,SSW,205,0.0,0.0,76,0.00,CLR,SKC,0.00,WeatherDisplay:10.37,2013-02-25 16:17:00,
2013-02-25 09:22:00,27.9,21.6,29.94,SSW,205,0.0,0.0,77,0.00,CLR,SKC,0.00,WeatherDisplay:10.37,2013-02-25 16:22:00,
2013-02-25 09:27:00,28.3,22.3,29.94,SSW,205,0.0,0.0,78,0.00,CLR,SKC,0.00,WeatherDisplay:10.37,2013-02-25 16:27:00,
2013-02-25 09:32:00,28.7,22.4,29.94,SSW,205,0.0,0.0,77,0.00,CLR,SKC,0.00,WeatherDisplay:10.37,2013-02-25 16:32:00,
2013-02-25 09:37:00,28.9,22.3,29.94,SSW,205,2.3,2.3,76,0.00,CLR,SKC,0.00,WeatherDisplay:10.37,2013-02-25 16:37:00,
2013-02-25 09:42:00,29.2,22.6,29.94,SSE,157,1.1,1.1,76,0.00,CLR,SKC,0.00,WeatherDisplay:10.37,2013-02-25 16:42:00,
2013-02-25 09:47:00,29.5,22.9,29.94,SSE,157,0.0,0.0,76,0.00,CLR,SKC,0.00,WeatherDisplay:10.37,2013-02-25 16:47:00,
2013-02-25 09:52:00,29.8,22.8,29.94,SSE,157,1.1,0.0,75,0.00,CLR,SKC,0.00,WeatherDisplay:10.37,2013-02-25 16:52:00,
2013-02-25 09:57:00,30.2,22.9,29.94,ENE,74,0.0,0.0,74,0.00,CLR,SKC,0.00,WeatherDisplay:10.37,2013-02-25 16:57:00,
2013-02-25 10:03:00,30.8,23.2,29.94,NE,50,3.0,3.0,73,0.00,CLR,SKC,0.00,WeatherDisplay:10.37,2013-02-25 17:03:00,
2013-02-25 10:08:00,31.4,23.7,29.93,ENE,76,2.3,2.3,73,0.00,CLR,SKC,0.00,WeatherDisplay:10.37,2013-02-25 17:08:00,
2013-02-25 10:13:00,31.7,23.4,29.93,NE,49,2.3,2.3,71,0.00,CLR,SKC,0.00,WeatherDisplay:10.37,2013-02-25 17:13:00,
2013-02-25 10:19:00,31.9,22.9,29.93,NE,56,0.0,2.0,69,0.00,CLR,SKC,0.00,WeatherDisplay:10.37,2013-02-25 17:19:00,
2013-02-25 10:24:00,32.1,23.8,29.93,NE,49,0.0,1.0,71,0.00,CLR,SKC,0.00,WeatherDisplay:10.37,2013-02-25 17:24:00,
2013-02-25 10:29:00,32.3,23.9,29.93,NE,49,0.0,1.0,71,0.00,CLR,SKC,0.00,WeatherDisplay:10.37,2013-02-25 17:29:00,
2013-02-25 10:34:00,32.5,24.1,29.93,NE,49,0.0,0.0,71,0.00,CLR,SKC,0.00,WeatherDisplay:10.37,2013-02-25 17:34:00,
2013-02-25 10:39:00,32.7,24.3,29.93,NE,49,0.0,0.0,71,0.00,CLR,SKC,0.00,WeatherDisplay:10.37,2013-02-25 17:39:00,
2013-02-25 10:44:00,33.0,24.6,29.93,NE,49,0.0,0.0,71,0.00,CLR,SKC,0.00,WeatherDisplay:10.37,2013-02-25 17:44:00,
2013-02-25 10:49:00,33.3,25.2,29.92,NE,49,1.1,1.1,72,0.00,CLR,SKC,0.00,WeatherDisplay:10.37,2013-02-25 17:49:00,
2013-02-25 10:54:00,33.5,25.1,29.93,ENE,57,0.0,0.0,71,0.00,CLR,SKC,0.00,WeatherDisplay:10.37,2013-02-25 17:54:00,
2013-02-25 10:59:00,33.8,25.0,29.93,ENE,57,1.1,0.0,70,0.00,CLR,SKC,0.00,WeatherDisplay:10.37,2013-02-25 17:59:00,
2013-02-25 11:04:00,34.4,26.0,29.93,SSW,209,1.1,1.1,71,0.00,CLR,SKC,0.00,WeatherDisplay:10.37,2013-02-25 18:04:00,
2013-02-25 11:10:00,35.5,26.7,29.93,South,185,3.5,3.5,70,0.00,CLR,SKC,0.00,WeatherDisplay:10.37,2013-02-25 18:10:00,
2013-02-25 11:16:00,35.6,26.4,29.93,SSW,199,4.6,4.6,69,0.00,CLR,SKC,0.00,WeatherDisplay:10.37,2013-02-25 18:16:00,
2013-02-25 11:21:00,35.9,26.7,29.93,SSW,198,3.5,3.5,69,0.00,CLR,SKC,0.00,WeatherDisplay:10.37,2013-02-25 18:21:00,
2013-02-25 11:26:00,36.1,27.6,29.93,WNW,300,3.5,3.5,71,0.00,CLR,SKC,0.00,WeatherDisplay:10.37,2013-02-25 18:26:00,
2013-02-25 11:31:00,36.0,27.8,29.93,WSW,245,4.0,4.0,72,0.00,CLR,SKC,0.00,WeatherDisplay:10.37,2013-02-25 18:31:00,
2013-02-25 11:36:00,35.8,28.3,29.92,West,269,2.3,2.3,74,0.00,CLR,SKC,0.00,WeatherDisplay:10.37,2013-02-25 18:36:00,
2013-02-25 11:41:00,35.9,28.1,29.92,WSW,245,3.5,3.5,73,0.00,CLR,SKC,0.00,WeatherDisplay:10.37,2013-02-25 18:41:00,
2013-02-25 11:46:00,35.9,28.1,29.92,SW,214,4.6,4.6,73,0.00,CLR,SKC,0.00,WeatherDisplay:10.37,2013-02-25 18:46:00,
2013-02-25 11:51:00,36.0,28.5,29.93,SW,224,3.5,3.5,74,0.00,CLR,SKC,0.00,WeatherDisplay:10.37,2013-02-25 18:51:00,
2013-02-25 11:56:00,36.2,28.0,29.93,SW,221,3.5,3.5,72,0.00,CLR,SKC,0.00,WeatherDisplay:10.37,2013-02-25 18:56:00,
2013-02-25 12:01:00,36.4,27.9,29.93,South,185,3.5,3.5,71,0.00,CLR,SKC,0.00,WeatherDisplay:10.37,2013-02-25 19:01:00,
2013-02-25 12:07:00,36.5,27.6,29.93,SW,219,8.1,8.1,70,0.00,CLR,SKC,0.00,WeatherDisplay:10.37,2013-02-25 19:07:00,
2013-02-25 12:13:00,35.7,28.9,29.94,SSW,207,4.6,4.6,76,0.00,CLR,SKC,0.00,WeatherDisplay:10.37,2013-02-25 19:13:00,
2013-02-25 12:18:00,35.2,29.0,29.94,SSW,196,3.5,3.5,78,0.00,CLR,SKC,0.00,WeatherDisplay:10.37,2013-02-25 19:18:00,
2013-02-25 12:23:00,35.0,29.5,29.93,South,180,4.6,4.6,80,0.00,CLR,SKC,0.00,WeatherDisplay:10.37,2013-02-25 19:23:00,
2013-02-25 12:28:00,35.1,29.9,29.93,SSW,213,3.5,3.5,81,0.00,CLR,SKC,0.00,WeatherDisplay:10.37,2013-02-25 19:28:00,
2013-02-25 12:33:00,35.6,29.7,29.93,SSE,150,3.5,3.5,79,0.00,CLR,SKC,0.00,WeatherDisplay:10.37,2013-02-25 19:33:00,
2013-02-25 12:38:00,36.1,29.9,29.94,SW,232,5.8,5.8,78,0.00,CLR,SKC,0.00,WeatherDisplay:10.37,2013-02-25 19:38:00,
2013-02-25 12:43:00,36.1,29.9,29.93,SW,235,6.0,6.0,78,0.00,CLR,SKC,0.00,WeatherDisplay:10.37,2013-02-25 19:43:00,
2013-02-25 12:48:00,36.2,29.7,29.93,SW,219,2.0,9.0,77,0.00,CLR,SKC,0.00,WeatherDisplay:10.37,2013-02-25 19:48:00,
2013-02-25 12:54:00,36.5,29.7,29.93,WSW,248,4.6,4.6,76,0.00,CLR,SKC,0.00,WeatherDisplay:10.37,2013-02-25 19:54:00,
2013-02-25 12:59:00,36.7,29.2,29.93,SSW,197,6.9,6.9,74,0.00,CLR,SKC,0.00,WeatherDisplay:10.37,2013-02-25 19:59:00,
2013-02-25 13:03:00,37.0,29.1,29.92,SSW,194,4.0,4.0,73,0.00,CLR,SKC,0.00,WeatherDisplay:10.37,2013-02-25 20:03:00,
2013-02-25 13:08:00,37.3,28.8,29.92,SW,224,3.5,3.5,71,0.00,CLR,SKC,0.00,WeatherDisplay:10.37,2013-02-25 20:08:00,
2013-02-25 13:14:00,37.5,28.2,29.92,SW,229,4.6,4.6,69,0.00,CLR,SKC,0.00,WeatherDisplay:10.37,2013-02-25 20:14:00,
2013-02-25 13:19:00,37.8,28.2,29.92,SSW,213,2.3,2.3,68,0.00,CLR,SKC,0.00,WeatherDisplay:10.37,2013-02-25 20:19:00,
2013-02-25 13:24:00,37.8,27.8,29.92,SW,236,1.1,1.1,67,0.00,CLR,SKC,0.00,WeatherDisplay:10.37,2013-02-25 20:24:00,
2013-02-25 13:29:00,37.8,27.8,29.92,SW,227,4.0,4.0,67,0.00,CLR,SKC,0.00,WeatherDisplay:10.37,2013-02-25 20:29:00,
2013-02-25 13:34:00,37.7,27.4,29.92,SSW,194,3.5,3.5,66,0.00,CLR,SKC,0.00,WeatherDisplay:10.37,2013-02-25 20:34:00,
2013-02-25 13:40:00,37.7,27.4,29.92,WSW,244,0.0,0.0,66,0.00,CLR,SKC,0.00,WeatherDisplay:10.37,2013-02-25 20:40:00,
2013-02-25 13:45:00,37.8,27.1,29.92,WSW,245,2.3,2.3,65,0.00,CLR,SKC,0.00,WeatherDisplay:10.37,2013-02-25 20:45:00,
2013-02-25 13:50:00,37.9,26.8,29.93,SW,225,3.5,3.5,64,0.00,CLR,SKC,0.00,WeatherDisplay:10.37,2013-02-25 20:50:00,
2013-02-25 13:55:00,38.0,27.3,29.92,SSE,159,2.0,2.0,65,0.00,CLR,SKC,0.00,WeatherDisplay:10.37,2013-02-25 20:55:00,
2013-02-25 14:00:00,38.0,26.9,29.93,SW,232,3.0,3.0,64,0.00,CLR,SKC,0.00,WeatherDisplay:10.37,2013-02-25 21:00:00,
2013-02-25 14:06:00,38.0,26.5,29.93,SSW,204,4.6,4.6,63,0.00,CLR,SKC,0.00,WeatherDisplay:10.37,2013-02-25 21:06:00,
2013-02-25 14:11:00,37.9,25.6,29.92,SW,217,4.0,4.0,61,0.00,CLR,SKC,0.00,WeatherDisplay:10.37,2013-02-25 21:11:00,
2013-02-25 14:16:00,37.9,24.8,29.92,South,174,9.2,9.2,59,0.00,CLR,SKC,0.00,WeatherDisplay:10.37,2013-02-25 21:16:00,
2013-02-25 14:22:00,37.4,24.8,29.92,SSW,202,2.3,2.3,60,0.00,CLR,SKC,0.00,WeatherDisplay:10.37,2013-02-25 21:22:00,
2013-02-25 14:27:00,37.4,24.8,29.93,SW,214,4.6,4.6,60,0.00,CLR,SKC,0.00,WeatherDisplay:10.37,2013-02-25 21:27:00,
2013-02-25 14:32:00,37.7,24.6,29.93,SSW,197,3.5,3.5,59,0.00,CLR,SKC,0.00,WeatherDisplay:10.37,2013-02-25 21:32:00,
2013-02-25 14:38:00,37.7,25.1,29.93,SSW,206,3.0,7.0,60,0.00,CLR,SKC,0.00,WeatherDisplay:10.37,2013-02-25 21:38:00,
2013-02-25 14:43:00,37.4,25.2,29.94,WSW,240,9.2,9.2,61,0.00,CLR,SKC,0.00,WeatherDisplay:10.37,2013-02-25 21:43:00,
2013-02-25 14:49:00,37.1,25.7,29.93,SW,222,5.0,5.0,63,0.00,CLR,SKC,0.00,WeatherDisplay:10.37,2013-02-25 21:49:00,
2013-02-25 14:54:00,36.9,25.9,29.94,WSW,243,9.2,9.2,64,0.00,CLR,SKC,0.00,WeatherDisplay:10.37,2013-02-25 21:54:00,
2013-02-25 14:59:00,36.5,26.2,29.95,SW,227,6.9,6.9,66,0.00,CLR,SKC,0.00,WeatherDisplay:10.37,2013-02-25 21:59:00,
2013-02-25 15:05:00,36.1,26.2,29.95,SW,217,5.0,5.0,67,0.00,CLR,SKC,0.00,WeatherDisplay:10.37,2013-02-25 22:05:00,
2013-02-25 15:11:00,35.8,27.3,29.95,SW,217,5.8,5.8,71,0.00,CLR,SKC,0.00,WeatherDisplay:10.37,2013-02-25 22:11:00,
2013-02-25 15:16:00,35.1,27.6,29.95,SSW,194,5.8,5.8,74,0.00,CLR,SKC,0.00,WeatherDisplay:10.37,2013-02-25 22:16:00,
2013-02-25 15:21:00,34.4,28.9,29.95,SSW,200,5.0,5.0,80,0.00,CLR,SKC,0.00,WeatherDisplay:10.37,2013-02-25 22:21:00,
2013-02-25 15:26:00,34.2,29.6,29.95,SSW,202,4.6,4.6,83,0.00,CLR,SKC,0.00,WeatherDisplay:10.37,2013-02-25 22:26:00,
2013-02-25 15:32:00,34.5,29.9,29.95,SW,235,5.8,5.8,83,0.00,CLR,SKC,0.00,WeatherDisplay:10.37,2013-02-25 22:32:00,
2013-02-25 15:37:00,35.0,29.5,29.94,South,169,3.5,3.5,80,0.00,CLR,SKC,0.00,WeatherDisplay:10.37,2013-02-25 22:37:00,
2013-02-25 15:42:00,35.7,29.2,29.94,SSW,207,4.6,4.6,77,0.00,CLR,SKC,0.00,WeatherDisplay:10.37,2013-02-25 22:42:00,
2013-02-25 15:47:00,35.6,28.8,29.94,SW,236,6.9,6.9,76,0.00,CLR,SKC,0.00,WeatherDisplay:10.37,2013-02-25 22:47:00,
2013-02-25 15:52:00,35.4,28.9,29.94,SW,220,2.3,2.3,77,0.00,CLR,SKC,0.00,WeatherDisplay:10.37,2013-02-25 22:52:00,
2013-02-25 15:57:00,35.3,28.5,29.95,SW,221,6.9,6.9,76,0.00,CLR,SKC,0.00,WeatherDisplay:10.37,2013-02-25 22:57:00,
2013-02-25 16:02:00,35.5,28.4,29.95,SSE,160,3.5,3.5,75,0.00,CLR,SKC,0.00,WeatherDisplay:10.37,2013-02-25 23:02:00,
2013-02-25 16:07:00,35.6,28.1,29.95,South,175,4.6,4.6,74,0.00,CLR,SKC,0.00,WeatherDisplay:10.37,2013-02-25 23:07:00,
2013-02-25 16:12:00,36.0,28.5,29.95,SW,219,3.5,3.5,74,0.00,CLR,SKC,0.00,WeatherDisplay:10.37,2013-02-25 23:12:00,
2013-02-25 16:17:00,36.4,26.5,29.95,SSW,200,3.5,3.5,67,0.00,CLR,SKC,0.00,WeatherDisplay:10.37,2013-02-25 23:17:00,
2013-02-25 16:22:00,36.9,28.4,29.95,SSE,165,3.5,3.5,71,0.00,CLR,SKC,0.00,WeatherDisplay:10.37,2013-02-25 23:22:00,
2013-02-25 16:27:00,37.2,28.3,29.95,WSW,238,12.7,12.7,70,0.00,CLR,SKC,0.00,WeatherDisplay:10.37,2013-02-25 23:27:00,
2013-02-25 16:33:00,37.1,27.9,29.95,South,185,3.5,3.5,69,0.00,CLR,SKC,0.00,WeatherDisplay:10.37,2013-02-25 23:33:00,
2013-02-25 16:38:00,37.3,27.7,29.95,SW,233,4.6,4.6,68,0.00,CLR,SKC,0.00,WeatherDisplay:10.37,2013-02-25 23:38:00,
2013-02-25 16:43:00,37.1,27.5,29.95,WSW,238,3.5,3.5,68,0.00,CLR,SKC,0.00,WeatherDisplay:10.37,2013-02-25 23:43:00,
2013-02-25 16:48:00,36.7,27.5,29.95,South,187,3.5,3.5,69,0.00,CLR,SKC,0.00,WeatherDisplay:10.37,2013-02-25 23:48:00,
2013-02-25 16:53:00,36.1,26.9,29.95,South,188,3.5,3.5,69,0.00,CLR,SKC,0.00,WeatherDisplay:10.37,2013-02-25 23:53:00,
2013-02-25 16:58:00,35.8,27.0,29.95,South,182,2.3,2.3,70,0.00,CLR,SKC,0.00,WeatherDisplay:10.37,2013-02-25 23:58:00,
2013-02-25 17:03:00,35.6,26.8,29.95,WSW,239,3.5,3.5,70,0.00,CLR,SKC,0.00,WeatherDisplay:10.37,2013-02-26 00:03:00,
2013-02-25 17:08:00,35.5,26.7,29.95,SW,222,3.5,3.5,70,0.00,CLR,SKC,0.00,WeatherDisplay:10.37,2013-02-26 00:08:00,
2013-02-25 17:13:00,35.3,26.5,29.95,SSW,212,5.8,5.8,70,0.00,CLR,SKC,0.00,WeatherDisplay:10.37,2013-02-26 00:13:00,
2013-02-25 17:18:00,35.2,26.4,29.96,South,171,4.6,4.6,70,0.00,CLR,SKC,0.00,WeatherDisplay:10.37,2013-02-26 00:18:00,
2013-02-25 17:23:00,35.2,26.7,29.96,South,187,1.0,4.0,71,0.00,CLR,SKC,0.00,WeatherDisplay:10.37,2013-02-26 00:23:00,
2013-02-25 17:28:00,35.1,26.6,29.95,SSW,206,1.0,4.0,71,0.00,CLR,SKC,0.00,WeatherDisplay:10.37,2013-02-26 00:28:00,
2013-02-25 17:34:00,35.1,26.3,29.96,SW,220,3.5,3.5,70,0.00,CLR,SKC,0.00,WeatherDisplay:10.37,2013-02-26 00:34:00,
2013-02-25 17:39:00,35.2,25.7,29.96,WSW,258,3.5,3.5,68,0.00,CLR,SKC,0.00,WeatherDisplay:10.37,2013-02-26 00:39:00,
2013-02-25 17:44:00,35.3,24.0,29.96,WSW,246,5.8,5.8,63,0.00,CLR,SKC,0.00,WeatherDisplay:10.37,2013-02-26 00:44:00,
2013-02-25 17:49:00,35.6,24.6,29.96,SW,232,3.0,3.0,64,0.00,CLR,SKC,0.00,WeatherDisplay:10.37,2013-02-26 00:49:00,
2013-02-25 17:54:00,35.1,25.6,29.96,WSW,254,3.5,3.5,68,0.00,CLR,SKC,0.00,WeatherDisplay:10.37,2013-02-26 00:54:00,
2013-02-25 17:59:00,34.5,25.7,29.96,SW,229,3.5,3.5,70,0.00,CLR,SKC,0.00,WeatherDisplay:10.37,2013-02-26 00:59:00,
2013-02-25 18:04:00,34.0,25.9,29.96,West,264,3.5,3.5,72,0.00,CLR,SKC,0.00,WeatherDisplay:10.37,2013-02-26 01:04:00,
2013-02-25 18:09:00,33.7,26.0,29.96,West,259,2.3,2.3,73,0.00,CLR,SKC,0.00,WeatherDisplay:10.37,2013-02-26 01:09:00,
2013-02-25 18:15:00,33.5,25.8,29.96,SW,228,2.3,2.3,73,0.00,CLR,SKC,0.00,WeatherDisplay:10.37,2013-02-26 01:15:00,
2013-02-25 18:20:00,33.3,25.9,29.96,SW,226,1.1,1.1,74,0.00,CLR,SKC,0.00,WeatherDisplay:10.37,2013-02-26 01:20:00,
2013-02-25 18:26:00,33.1,25.7,29.97,SW,217,2.3,2.3,74,0.00,CLR,SKC,0.00,WeatherDisplay:10.37,2013-02-26 01:26:00,
2013-02-25 18:31:00,32.8,25.4,29.97,SW,217,2.3,2.3,74,0.00,CLR,SKC,0.00,WeatherDisplay:10.37,2013-02-26 01:31:00,
2013-02-25 18:36:00,32.6,25.6,29.97,SW,219,2.3,2.3,75,0.00,CLR,SKC,0.00,WeatherDisplay:10.37,2013-02-26 01:36:00,
2013-02-25 18:41:00,32.5,25.5,29.97,SSW,213,3.5,3.5,75,0.00,CLR,SKC,0.00,WeatherDisplay:10.37,2013-02-26 01:41:00,
2013-02-25 18:46:00,32.5,25.1,29.97,SSW,194,3.5,3.5,74,0.00,CLR,SKC,0.00,WeatherDisplay:10.37,2013-02-26 01:46:00,
2013-02-25 18:51:00,32.6,25.2,29.98,SSW,194,1.1,1.1,74,0.00,CLR,SKC,0.00,WeatherDisplay:10.37,2013-02-26 01:51:00,
2013-02-25 18:56:00,32.6,25.2,29.98,SSW,194,0.0,0.0,74,0.00,CLR,SKC,0.00,WeatherDisplay:10.37,2013-02-26 01:56:00,
2013-02-25 19:01:00,32.5,25.8,29.98,SSW,194,1.1,1.1,76,0.00,CLR,SKC,0.00,WeatherDisplay:10.37,2013-02-26 02:01:00,
2013-02-25 19:06:00,32.3,24.9,29.98,SSW,194,0.0,0.0,74,0.00,CLR,SKC,0.00,WeatherDisplay:10.37,2013-02-26 02:06:00,
2013-02-25 19:11:00,32.1,25.4,29.98,SSW,194,0.0,0.0,76,0.00,CLR,SKC,0.00,WeatherDisplay:10.37,2013-02-26 02:11:00,
2013-02-25 19:16:00,31.8,24.8,29.98,SSW,194,1.0,1.0,75,0.00,CLR,SKC,0.00,WeatherDisplay:10.37,2013-02-26 02:16:00,
2013-02-25 19:21:00,31.4,24.4,29.98,SSW,194,2.0,2.0,75,0.00,CLR,SKC,0.00,WeatherDisplay:10.37,2013-02-26 02:21:00,
2013-02-25 19:26:00,30.9,24.5,29.98,SSW,194,1.1,0.0,77,0.00,CLR,SKC,0.00,WeatherDisplay:10.37,2013-02-26 02:26:00,
2013-02-25 19:31:00,30.5,24.5,29.98,SSW,194,1.1,1.1,78,0.00,CLR,SKC,0.00,WeatherDisplay:10.37,2013-02-26 02:31:00,
2013-02-25 19:37:00,30.2,24.5,29.99,SSW,194,2.3,2.3,79,0.00,CLR,SKC,0.00,WeatherDisplay:10.37,2013-02-26 02:37:00,
2013-02-25 19:42:00,30.0,24.6,29.99,SSW,199,2.3,2.3,80,0.00,CLR,SKC,0.00,WeatherDisplay:10.37,2013-02-26 02:42:00,
2013-02-25 19:47:00,30.2,24.8,30.00,SW,223,3.5,3.5,80,0.00,CLR,SKC,0.00,WeatherDisplay:10.37,2013-02-26 02:47:00,
2013-02-25 19:53:00,30.8,24.7,30.00,WSW,237,3.5,3.5,78,0.00,CLR,SKC,0.00,WeatherDisplay:10.37,2013-02-26 02:53:00,
2013-02-25 19:58:00,31.3,24.6,30.01,SW,214,1.1,0.0,76,0.00,CLR,SKC,0.00,WeatherDisplay:10.37,2013-02-26 02:58:00,
2013-02-25 20:03:00,31.5,25.1,30.01,SW,225,3.5,3.5,77,0.00,CLR,SKC,0.00,WeatherDisplay:10.37,2013-02-26 03:03:00,
2013-02-25 20:08:00,31.7,26.5,30.00,WSW,246,0.0,0.0,81,0.00,CLR,SKC,0.00,WeatherDisplay:10.37,2013-02-26 03:08:00,
2013-02-25 20:13:00,31.5,26.3,30.00,SW,220,6.0,6.0,81,0.00,CLR,SKC,0.00,WeatherDisplay:10.37,2013-02-26 03:13:00,
2013-02-25 20:18:00,31.2,26.3,30.01,South,172,3.5,3.5,82,0.00,CLR,SKC,0.00,WeatherDisplay:10.37,2013-02-26 03:18:00,
2013-02-25 20:23:00,30.9,26.3,30.01,WSW,257,4.0,4.0,83,0.00,CLR,SKC,0.00,WeatherDisplay:10.37,2013-02-26 03:23:00,
2013-02-25 20:28:00,30.7,26.1,30.01,SW,234,2.0,2.0,83,0.00,CLR,SKC,0.00,WeatherDisplay:10.37,2013-02-26 03:28:00,
2013-02-25 20:33:00,30.5,26.2,30.01,SSE,158,3.5,3.5,84,0.00,CLR,SKC,0.00,WeatherDisplay:10.37,2013-02-26 03:33:00,
2013-02-25 20:38:00,30.5,26.0,30.01,West,269,4.6,4.6,83,0.00,CLR,SKC,0.00,WeatherDisplay:10.37,2013-02-26 03:38:00,
2013-02-25 20:43:00,30.6,25.8,30.01,SSW,204,2.3,2.3,82,0.00,CLR,SKC,0.00,WeatherDisplay:10.37,2013-02-26 03:43:00,
2013-02-25 20:48:00,30.7,25.9,30.01,WNW,286,3.5,3.5,82,0.00,CLR,SKC,0.00,WeatherDisplay:10.37,2013-02-26 03:48:00,
2013-02-25 20:54:00,30.7,25.9,30.01,West,266,0.0,3.0,82,0.00,CLR,SKC,0.00,WeatherDisplay:10.37,2013-02-26 03:54:00,
2013-02-25 20:59:00,30.5,25.7,30.01,South,176,0.0,3.0,82,0.00,CLR,SKC,0.00,WeatherDisplay:10.37,2013-02-26 03:59:00,
2013-02-25 21:04:00,30.4,25.3,30.01,South,176,3.5,3.5,81,0.00,CLR,SKC,0.00,WeatherDisplay:10.37,2013-02-26 04:04:00,
2013-02-25 21:10:00,30.6,25.5,30.01,SSW,210,3.0,3.0,81,0.00,CLR,SKC,0.00,WeatherDisplay:10.37,2013-02-26 04:10:00,
2013-02-25 21:16:00,30.9,25.2,30.01,South,191,4.6,4.6,79,0.00,CLR,SKC,0.00,WeatherDisplay:10.37,2013-02-26 04:16:00,
2013-02-25 21:22:00,31.2,25.1,30.02,SSE,167,3.5,3.5,78,0.00,CLR,SKC,0.00,WeatherDisplay:10.37,2013-02-26 04:22:00,
2013-02-25 21:27:00,31.2,25.4,30.02,SSE,167,1.1,1.1,79,0.00,CLR,SKC,0.00,WeatherDisplay:10.37,2013-02-26 04:27:00,
2013-02-25 21:32:00,31.1,25.3,30.02,SSW,209,0.0,0.0,79,0.00,CLR,SKC,0.00,WeatherDisplay:10.37,2013-02-26 04:32:00,
2013-02-25 21:37:00,31.0,25.6,30.02,SSW,209,0.0,0.0,80,0.00,CLR,SKC,0.00,WeatherDisplay:10.37,2013-02-26 04:37:00,
2013-02-25 21:42:00,30.9,25.5,30.02,South,179,0.0,0.0,80,0.00,CLR,SKC,0.00,WeatherDisplay:10.37,2013-02-26 04:42:00,
2013-02-25 21:47:00,30.7,25.3,30.03,South,179,0.0,0.0,80,0.00,CLR,SKC,0.00,WeatherDisplay:10.37,2013-02-26 04:47:00,
2013-02-25 21:52:00,30.4,25.3,30.02,SSE,151,1.1,1.1,81,0.00,CLR,SKC,0.00,WeatherDisplay:10.37,2013-02-26 04:52:00,
2013-02-25 21:58:00,30.1,25.3,30.03,SSE,151,2.3,2.3,82,0.00,CLR,SKC,0.00,WeatherDisplay:10.37,2013-02-26 04:58:00,
2013-02-25 22:00:00,30.0,25.2,30.03,ESE,115,2.3,2.3,82,0.00,CLR,SKC,0.00,WeatherDisplay:10.37,2013-02-26 05:00:00,
2013-02-25 22:01:00,30.0,25.2,30.03,ESE,115,1.1,1.1,82,0.00,CLR,SKC,0.00,WeatherDisplay:10.37,2013-02-26 05:01:00,
2013-02-25 22:02:00,29.9,25.1,30.03,SSE,153,2.0,2.0,82,0.00,CLR,SKC,0.00,WeatherDisplay:10.37,2013-02-26 05:02:00,
2013-02-25 22:03:00,29.9,25.1,30.03,SSE,153,2.3,2.3,82,0.00,CLR,SKC,0.00,WeatherDisplay:10.37,2013-02-26 05:03:00,
2013-02-25 22:08:00,29.9,25.1,30.03,SSW,204,2.3,2.3,82,0.00,CLR,SKC,0.00,WeatherDisplay:10.37,2013-02-26 05:08:00,
2013-02-25 22:13:00,30.3,25.2,30.03,South,183,1.1,1.1,81,0.00,CLR,SKC,0.00,WeatherDisplay:10.37,2013-02-26 05:13:00,
2013-02-25 22:18:00,30.5,25.4,30.03,South,183,2.3,2.3,81,0.00,CLR,SKC,0.00,WeatherDisplay:10.37,2013-02-26 05:18:00,
2013-02-25 22:23:00,30.6,25.8,30.03,South,183,0.0,1.0,82,0.00,CLR,SKC,0.00,WeatherDisplay:10.37,2013-02-26 05:23:00,
2013-02-25 22:28:00,30.6,25.5,30.03,South,186,1.0,3.0,81,0.00,CLR,SKC,0.00,WeatherDisplay:10.37,2013-02-26 05:28:00,
2013-02-25 22:34:00,30.8,25.1,30.04,WSW,242,2.3,2.3,79,0.00,CLR,SKC,0.00,WeatherDisplay:10.37,2013-02-26 05:34:00,
2013-02-25 22:39:00,31.1,25.3,30.04,SSW,209,2.3,2.3,79,0.00,CLR,SKC,0.00,WeatherDisplay:10.37,2013-02-26 05:39:00,
2013-02-25 22:44:00,31.1,25.7,30.05,SSW,209,1.1,1.1,80,0.00,CLR,SKC,0.00,WeatherDisplay:10.37,2013-02-26 05:44:00,
2013-02-25 22:50:00,31.0,25.6,30.05,SSW,209,1.1,1.1,80,0.00,CLR,SKC,0.00,WeatherDisplay:10.37,2013-02-26 05:50:00,
2013-02-25 22:55:00,30.8,25.7,30.05,SSW,209,0.0,0.0,81,0.00,CLR,SKC,0.00,WeatherDisplay:10.37,2013-02-26 05:55:00,
2013-02-25 23:00:00,30.6,25.2,30.05,SSW,209,0.0,0.0,80,0.00,CLR,SKC,0.00,WeatherDisplay:10.37,2013-02-26 06:00:00,
2013-02-25 23:06:00,30.5,25.7,30.05,SSW,209,2.3,2.3,82,0.00,CLR,SKC,0.00,WeatherDisplay:10.37,2013-02-26 06:06:00,
2013-02-25 23:11:00,30.1,25.0,30.05,SSW,209,3.0,3.0,81,0.00,CLR,SKC,0.00,WeatherDisplay:10.37,2013-02-26 06:11:00,
2013-02-25 23:16:00,30.2,25.1,30.05,South,182,2.3,2.3,81,0.00,CLR,SKC,0.00,WeatherDisplay:10.37,2013-02-26 06:16:00,
2013-02-25 23:21:00,30.3,24.9,30.05,South,185,2.3,2.3,80,0.00,CLR,SKC,0.00,WeatherDisplay:10.37,2013-02-26 06:21:00,
2013-02-25 23:26:00,30.5,25.4,30.05,SSW,208,3.5,3.5,81,0.00,CLR,SKC,0.00,WeatherDisplay:10.37,2013-02-26 06:26:00,
2013-02-25 23:31:00,30.4,25.3,30.06,SW,227,3.5,3.5,81,0.00,CLR,SKC,0.00,WeatherDisplay:10.37,2013-02-26 06:31:00,
2013-02-25 23:36:00,30.6,25.5,30.06,WSW,238,4.6,4.6,81,0.00,CLR,SKC,0.00,WeatherDisplay:10.37,2013-02-26 06:36:00,
2013-02-25 23:41:00,30.6,25.5,30.06,SW,219,3.5,3.5,81,0.00,CLR,SKC,0.00,WeatherDisplay:10.37,2013-02-26 06:41:00,
2013-02-25 23:47:00,30.7,26.1,30.07,West,272,3.5,3.5,83,0.00,CLR,SKC,0.00,WeatherDisplay:10.37,2013-02-26 06:47:00,
2013-02-25 23:52:00,30.4,26.7,30.07,SW,232,3.5,3.5,86,0.00,CLR,SKC,0.00,WeatherDisplay:10.37,2013-02-26 06:52:00,
2013-02-25 23:58:00,30.1,26.7,30.07,SW,232,0.0,3.0,87,0.00,CLR,SKC,0.00,WeatherDisplay:10.37,2013-02-26 06:58:00,